createdAt,value
2017-08-22T00:02:23.260Z,17.90
2017-08-22T00:04:50.782Z,18.00
2017-08-22T00:07:18.301Z,18.00
2017-08-22T00:09:45.827Z,17.90
2017-08-22T00:12:13.355Z,17.90
2017-08-22T00:14:40.910Z,17.80
2017-08-22T00:17:08.450Z,17.90
2017-08-22T00:19:35.975Z,17.80
2017-08-22T00:22:03.504Z,17.80
2017-08-22T00:24:31.034Z,18.10
2017-08-22T00:26:58.599Z,18.30
2017-08-22T00:29:26.122Z,18.10
2017-08-22T00:31:53.649Z,17.80
2017-08-22T00:34:21.170Z,17.80
2017-08-22T00:36:48.693Z,17.90
2017-08-22T00:39:16.250Z,18.10
2017-08-22T00:41:43.769Z,18.10
2017-08-22T00:44:11.294Z,18.40
2017-08-22T00:46:38.809Z,18.50
2017-08-22T00:49:06.327Z,18.40
2017-08-22T00:51:33.882Z,18.10
2017-08-22T00:54:01.410Z,18.20
2017-08-22T00:56:28.940Z,18.30
2017-08-22T00:58:56.457Z,18.30
2017-08-22T01:01:23.991Z,18.50
2017-08-22T01:03:51.554Z,18.50
2017-08-22T01:06:19.101Z,18.60
2017-08-22T01:08:46.627Z,18.30
2017-08-22T01:11:14.152Z,18.10
2017-08-22T01:13:41.705Z,18.00
2017-08-22T01:16:09.253Z,18.00
2017-08-22T01:18:36.786Z,18.20
2017-08-22T01:21:04.333Z,18.30
2017-08-22T01:23:31.864Z,18.10
2017-08-22T01:25:59.394Z,18.20
2017-08-22T01:28:26.956Z,18.30
2017-08-22T01:30:54.482Z,18.30
2017-08-22T01:33:22.017Z,18.20
2017-08-22T01:35:49.549Z,18.30
2017-08-22T01:38:17.086Z,18.30
2017-08-22T01:40:45.001Z,18.30
2017-08-22T01:43:12.537Z,18.00
2017-08-22T01:45:40.061Z,17.90
2017-08-22T01:48:07.587Z,18.00
2017-08-22T01:50:35.117Z,18.20
2017-08-22T01:53:02.684Z,18.30
2017-08-22T01:55:30.214Z,18.40
2017-08-22T01:57:57.746Z,18.30
2017-08-22T02:00:25.266Z,18.40
2017-08-22T02:02:52.790Z,18.60
2017-08-22T02:05:20.342Z,18.10
2017-08-22T02:07:47.862Z,18.00
2017-08-22T02:10:15.391Z,18.00
2017-08-22T02:12:42.914Z,18.00
2017-08-22T02:15:10.430Z,18.10
2017-08-22T02:17:37.982Z,18.30
2017-08-22T02:20:05.510Z,18.20
2017-08-22T02:22:33.102Z,18.10
2017-08-22T02:25:00.626Z,17.90
2017-08-22T02:27:28.159Z,17.90
2017-08-22T02:29:55.982Z,17.90
2017-08-22T02:32:23.503Z,17.70
2017-08-22T02:34:51.026Z,17.80
2017-08-22T02:37:18.550Z,17.70
2017-08-22T02:39:46.078Z,17.70
2017-08-22T02:42:13.626Z,18.00
2017-08-22T02:44:41.146Z,18.20
2017-08-22T02:47:08.678Z,18.20
2017-08-22T02:49:36.202Z,18.30
2017-08-22T02:52:03.726Z,18.40
2017-08-22T02:54:31.278Z,18.20
2017-08-22T02:56:58.798Z,18.10
2017-08-22T02:59:26.326Z,18.20
2017-08-22T03:01:53.851Z,18.20
2017-08-22T03:04:21.386Z,18.30
2017-08-22T03:06:48.941Z,18.30
2017-08-22T03:09:16.461Z,18.30
2017-08-22T03:11:43.977Z,17.80
2017-08-22T03:14:11.501Z,17.70
2017-08-22T03:16:39.023Z,17.70
2017-08-22T03:19:06.569Z,17.50
2017-08-22T03:21:34.088Z,17.20
2017-08-22T03:24:01.606Z,17.20
2017-08-22T03:26:29.133Z,17.20
2017-08-22T03:28:56.662Z,17.40
2017-08-22T03:31:24.219Z,17.50
2017-08-22T03:33:51.746Z,17.50
2017-08-22T03:36:19.269Z,17.40
2017-08-22T03:38:46.838Z,17.40
2017-08-22T03:41:14.366Z,17.40
2017-08-22T03:43:41.925Z,17.20
2017-08-22T03:46:09.458Z,17.20
2017-08-22T03:48:36.994Z,17.20
2017-08-22T03:51:04.544Z,17.20
2017-08-22T03:53:32.846Z,17.10
2017-08-22T03:56:00.404Z,17.10
2017-08-22T03:58:27.934Z,17.30
2017-08-22T04:00:55.463Z,17.10
2017-08-22T04:03:22.991Z,17.10
2017-08-22T04:05:50.562Z,17.00
2017-08-22T04:08:18.113Z,16.70
2017-08-22T04:10:45.642Z,16.50
2017-08-22T04:13:13.170Z,16.50
2017-08-22T04:15:40.701Z,16.40
2017-08-22T04:18:08.227Z,16.30
2017-08-22T04:20:35.782Z,16.30
2017-08-22T04:23:03.314Z,16.60
2017-08-22T04:25:30.847Z,16.60
2017-08-22T04:27:58.371Z,16.30
2017-08-22T04:30:25.905Z,16.00
2017-08-22T04:32:53.450Z,15.80
2017-08-22T04:35:20.977Z,16.00
2017-08-22T04:37:48.502Z,16.30
2017-08-22T04:40:16.033Z,16.80
2017-08-22T04:42:43.562Z,16.70
2017-08-22T04:45:11.117Z,16.20
2017-08-22T04:47:38.640Z,16.10
2017-08-22T04:50:06.165Z,16.30
2017-08-22T04:52:33.697Z,16.50
2017-08-22T04:55:01.226Z,16.50
2017-08-22T04:57:28.990Z,16.50
2017-08-22T04:59:56.517Z,16.30
2017-08-22T05:02:24.047Z,16.00
2017-08-22T05:04:51.574Z,16.10
2017-08-22T05:07:19.101Z,16.20
2017-08-22T05:09:46.645Z,16.40
2017-08-22T05:12:14.182Z,16.60
2017-08-22T05:14:41.710Z,16.60
2017-08-22T05:17:09.462Z,16.50
2017-08-22T05:19:36.989Z,16.60
2017-08-22T05:22:04.545Z,17.00
2017-08-22T05:24:32.074Z,17.30
2017-08-22T05:26:59.591Z,17.30
2017-08-22T05:29:27.114Z,16.80
2017-08-22T05:31:54.643Z,16.90
2017-08-22T05:34:22.189Z,16.90
2017-08-22T05:36:49.717Z,17.00
2017-08-22T05:39:17.250Z,16.60
2017-08-22T05:41:44.777Z,16.60
2017-08-22T05:44:12.308Z,16.50
2017-08-22T05:46:39.858Z,16.80
2017-08-22T05:49:07.388Z,16.80
2017-08-22T05:51:34.922Z,16.70
2017-08-22T05:54:02.446Z,16.90
2017-08-22T05:56:29.974Z,16.90
2017-08-22T05:58:57.542Z,16.80
2017-08-22T06:01:25.070Z,16.80
2017-08-22T06:03:52.589Z,16.90
2017-08-22T06:06:20.111Z,16.80
2017-08-22T06:08:47.646Z,17.10
2017-08-22T06:11:15.194Z,17.10
2017-08-22T06:13:42.730Z,17.40
2017-08-22T06:16:10.257Z,17.50
2017-08-22T06:18:37.777Z,17.60
2017-08-22T06:21:05.319Z,18.00
2017-08-22T06:23:32.876Z,18.00
2017-08-22T06:26:00.393Z,18.10
2017-08-22T06:28:27.918Z,18.60
2017-08-22T06:30:55.449Z,18.80
2017-08-22T06:33:22.969Z,18.60
2017-08-22T06:35:50.519Z,18.40
2017-08-22T06:38:18.046Z,18.80
2017-08-22T06:40:45.574Z,19.40
2017-08-22T06:43:13.100Z,19.40
2017-08-22T06:45:40.622Z,19.10
2017-08-22T06:48:08.174Z,18.60
2017-08-22T06:50:35.705Z,18.30
2017-08-22T06:53:03.325Z,18.20
2017-08-22T06:55:30.887Z,18.50
2017-08-22T06:57:58.406Z,19.10
2017-08-22T07:00:25.951Z,19.30
2017-08-22T07:02:53.480Z,19.40
2017-08-22T07:05:20.993Z,19.80
2017-08-22T07:07:48.517Z,20.10
2017-08-22T07:10:16.042Z,20.30
2017-08-22T07:12:43.595Z,20.80
2017-08-22T07:15:11.132Z,20.90
2017-08-22T07:17:38.654Z,20.90
2017-08-22T07:20:06.183Z,21.00
2017-08-22T07:22:33.710Z,21.20
2017-08-22T07:25:01.257Z,20.70
2017-08-22T07:27:28.790Z,20.70
2017-08-22T07:29:56.309Z,21.10
2017-08-22T07:32:23.833Z,21.40
2017-08-22T07:34:51.409Z,21.30
2017-08-22T07:37:18.970Z,20.90
2017-08-22T07:39:46.493Z,20.90
2017-08-22T07:42:14.018Z,21.10
2017-08-22T07:44:41.545Z,21.20
2017-08-22T07:47:09.067Z,21.50
2017-08-22T07:49:36.594Z,21.90
2017-08-22T07:52:04.118Z,21.80
2017-08-22T07:54:31.647Z,21.60
2017-08-22T07:56:59.169Z,21.40
2017-08-22T07:59:26.692Z,21.60
2017-08-22T08:01:54.214Z,21.70
2017-08-22T08:04:21.747Z,21.70
2017-08-22T08:06:49.272Z,21.60
2017-08-22T08:09:16.790Z,21.90
2017-08-22T08:11:44.333Z,22.30
2017-08-22T08:14:11.890Z,22.40
2017-08-22T08:16:39.417Z,22.30
2017-08-22T08:19:06.967Z,22.40
2017-08-22T08:21:34.490Z,22.40
2017-08-22T08:24:02.012Z,22.40
2017-08-22T08:26:29.558Z,22.10
2017-08-22T08:28:57.105Z,21.30
2017-08-22T08:31:24.631Z,21.00
2017-08-22T08:33:52.193Z,20.70
2017-08-22T08:36:19.727Z,20.40
2017-08-22T08:38:47.260Z,20.00
2017-08-22T08:41:14.809Z,20.20
2017-08-22T08:43:42.330Z,20.80
2017-08-22T08:46:09.846Z,21.20
2017-08-22T08:48:37.407Z,21.00
2017-08-22T08:51:04.931Z,21.00
2017-08-22T08:53:32.461Z,21.10
2017-08-22T08:55:59.986Z,20.80
2017-08-22T08:58:27.511Z,20.70
2017-08-22T09:00:55.070Z,20.20
2017-08-22T09:03:22.609Z,20.50
2017-08-22T09:05:50.137Z,20.90
2017-08-22T09:08:17.662Z,21.60
2017-08-22T09:10:45.210Z,22.00
2017-08-22T09:13:12.758Z,22.40
2017-08-22T09:15:40.278Z,22.50
2017-08-22T09:18:07.806Z,22.90
2017-08-22T09:20:35.332Z,23.20
2017-08-22T09:23:02.862Z,23.30
2017-08-22T09:25:30.417Z,23.70
2017-08-22T09:27:58.022Z,23.80
2017-08-22T09:30:25.548Z,23.80
2017-08-22T09:32:53.082Z,23.40
2017-08-22T09:35:20.604Z,23.40
2017-08-22T09:37:48.154Z,23.50
2017-08-22T09:40:15.687Z,23.70
2017-08-22T09:42:43.218Z,23.90
2017-08-22T09:45:10.781Z,24.10
2017-08-22T09:47:38.398Z,24.50
2017-08-22T09:50:05.949Z,25.00
2017-08-22T09:52:33.472Z,25.20
2017-08-22T09:55:01.042Z,25.40
2017-08-22T09:57:28.557Z,25.60
2017-08-22T09:59:56.074Z,25.80
2017-08-22T10:02:23.627Z,25.90
2017-08-22T10:04:51.157Z,25.90
2017-08-22T10:07:18.682Z,26.00
2017-08-22T10:09:46.213Z,26.10
2017-08-22T10:12:13.765Z,26.10
2017-08-22T10:14:41.318Z,25.90
2017-08-22T10:17:08.840Z,26.20
2017-08-22T10:19:36.371Z,26.40
2017-08-22T10:22:03.894Z,26.40
2017-08-22T10:24:31.419Z,26.40
2017-08-22T10:26:58.965Z,26.20
2017-08-22T10:29:26.490Z,26.20
2017-08-22T10:31:54.030Z,26.10
2017-08-22T10:34:21.553Z,26.10
2017-08-22T10:36:49.074Z,26.20
2017-08-22T10:39:16.628Z,26.20
2017-08-22T10:41:44.153Z,26.40
2017-08-22T10:44:11.678Z,26.60
2017-08-22T10:46:39.226Z,26.60
2017-08-22T10:49:06.800Z,26.80
2017-08-22T10:51:34.362Z,27.00
2017-08-22T10:54:01.894Z,27.10
2017-08-22T10:56:29.425Z,27.10
2017-08-22T10:58:56.946Z,26.60
2017-08-22T11:01:24.466Z,26.30
2017-08-22T11:03:52.021Z,26.10
2017-08-22T11:06:19.549Z,26.30
2017-08-22T11:08:47.073Z,26.90
2017-08-22T11:11:14.621Z,27.50
2017-08-22T11:13:42.141Z,28.20
2017-08-22T11:16:09.690Z,28.10
2017-08-22T11:18:37.215Z,28.10
2017-08-22T11:21:04.737Z,28.30
2017-08-22T11:23:32.281Z,28.70
2017-08-22T11:25:59.805Z,29.10
2017-08-22T11:28:27.354Z,29.00
2017-08-22T11:30:54.874Z,29.10
2017-08-22T11:33:22.394Z,29.20
2017-08-22T11:35:49.919Z,29.30
2017-08-22T11:38:17.443Z,29.50
2017-08-22T11:40:44.986Z,29.70
2017-08-22T11:43:12.507Z,29.30
2017-08-22T11:45:40.021Z,28.60
2017-08-22T11:48:07.537Z,29.30
2017-08-22T11:50:35.062Z,30.00
2017-08-22T11:53:02.606Z,30.00
2017-08-22T11:55:30.137Z,30.20
2017-08-22T11:57:57.663Z,30.30
2017-08-22T12:00:25.186Z,30.10
2017-08-22T12:02:52.736Z,30.20
2017-08-22T12:05:20.290Z,30.90
2017-08-22T12:07:47.807Z,31.20
2017-08-22T12:10:15.329Z,31.30
2017-08-22T12:12:42.860Z,31.30
2017-08-22T12:15:10.383Z,32.20
2017-08-22T12:17:37.934Z,33.20
2017-08-22T12:20:05.457Z,33.50
2017-08-22T12:22:32.990Z,33.80
2017-08-22T12:25:00.510Z,34.10
2017-08-22T12:27:28.049Z,34.70
2017-08-22T12:29:55.652Z,34.60
2017-08-22T12:32:23.178Z,34.10
2017-08-22T12:34:50.713Z,33.90
2017-08-22T12:37:18.238Z,33.30
2017-08-22T12:39:45.762Z,32.00
2017-08-22T12:42:13.320Z,30.50
2017-08-22T12:44:40.837Z,29.70
2017-08-22T12:47:08.362Z,29.90
2017-08-22T12:49:35.886Z,30.40
2017-08-22T12:52:03.413Z,31.10
2017-08-22T12:54:30.962Z,31.60
2017-08-22T12:56:58.537Z,31.80
2017-08-22T12:59:26.062Z,32.00
2017-08-22T13:01:53.590Z,31.40
2017-08-22T13:04:21.109Z,31.00
2017-08-22T13:06:48.678Z,31.50
2017-08-22T13:09:16.206Z,33.70
2017-08-22T13:11:43.728Z,36.50
2017-08-22T13:14:11.257Z,39.00
2017-08-22T13:16:38.777Z,40.50
2017-08-22T13:19:06.334Z,40.30
2017-08-22T13:21:33.857Z,40.70
2017-08-22T13:24:01.389Z,41.70
2017-08-22T13:26:28.918Z,42.70
2017-08-22T13:28:56.458Z,43.50
2017-08-22T13:31:24.010Z,43.60
2017-08-22T13:33:51.535Z,43.70
2017-08-22T13:36:19.082Z,43.70
2017-08-22T13:39:28.261Z,42.80
2017-08-22T13:41:55.802Z,42.10
2017-08-22T13:44:23.359Z,42.80
2017-08-22T13:46:50.888Z,42.80
2017-08-22T13:49:18.409Z,41.60
2017-08-22T13:51:45.953Z,39.40
2017-08-22T13:54:13.474Z,38.30
2017-08-22T13:56:40.995Z,37.10
2017-08-22T13:59:08.550Z,37.00
2017-08-22T14:01:36.162Z,37.90
2017-08-22T14:04:03.694Z,38.50
2017-08-22T14:06:31.221Z,38.70
2017-08-22T14:08:58.740Z,40.70
2017-08-22T14:11:26.287Z,42.00
2017-08-22T14:13:53.810Z,44.20
2017-08-22T14:16:21.333Z,45.50
2017-08-22T14:18:48.862Z,45.60
2017-08-22T14:21:16.381Z,45.70
2017-08-22T14:23:43.929Z,45.10
2017-08-22T14:26:11.526Z,45.80
2017-08-22T14:28:39.046Z,46.50
2017-08-22T14:31:07.336Z,47.60
2017-08-22T14:33:34.859Z,47.50
2017-08-22T14:36:02.413Z,47.10
2017-08-22T14:38:29.939Z,47.30
2017-08-22T14:40:57.461Z,48.00
2017-08-22T14:43:25.002Z,48.00
2017-08-22T14:45:52.524Z,48.80
2017-08-22T14:48:20.074Z,49.00
2017-08-22T14:50:47.595Z,49.00
2017-08-22T14:53:15.121Z,48.10
2017-08-22T14:55:42.642Z,48.20
2017-08-22T14:58:10.165Z,47.90
2017-08-22T15:00:37.705Z,48.20
2017-08-22T15:03:05.222Z,48.50
2017-08-22T15:05:32.749Z,48.50
2017-08-22T15:08:00.269Z,48.50
2017-08-22T15:10:27.791Z,48.70
2017-08-22T15:12:55.338Z,48.80
2017-08-22T15:15:22.907Z,48.80
2017-08-22T15:17:50.433Z,47.60
2017-08-22T15:20:18.026Z,45.00
2017-08-22T15:22:45.545Z,43.50
2017-08-22T15:25:13.090Z,42.10
2017-08-22T15:27:40.615Z,42.00
2017-08-22T15:30:08.134Z,42.60
2017-08-22T15:32:35.664Z,43.60
2017-08-22T15:35:03.186Z,43.40
2017-08-22T15:37:30.734Z,42.50
2017-08-22T15:39:58.263Z,42.60
2017-08-22T15:42:26.553Z,41.70
2017-08-22T15:44:54.073Z,41.60
2017-08-22T15:47:21.597Z,40.50
2017-08-22T15:49:49.153Z,39.50
2017-08-22T15:52:16.682Z,38.50
2017-08-22T15:54:44.205Z,38.70
2017-08-22T15:57:11.730Z,39.40
2017-08-22T15:59:39.245Z,39.30
2017-08-22T16:02:06.800Z,39.30
2017-08-22T16:04:34.326Z,39.60
2017-08-22T16:07:01.866Z,39.70
2017-08-22T16:09:29.383Z,39.50
2017-08-22T16:11:56.910Z,39.00
2017-08-22T16:14:24.486Z,37.80
2017-08-22T16:16:52.026Z,36.80
2017-08-22T16:19:19.541Z,35.90
2017-08-22T16:21:47.062Z,34.80
2017-08-22T16:24:14.578Z,33.70
2017-08-22T16:26:42.131Z,32.60
2017-08-22T16:29:09.650Z,31.70
2017-08-22T16:31:37.165Z,30.90
2017-08-22T16:34:04.683Z,30.00
2017-08-22T16:36:32.202Z,29.70
2017-08-22T16:38:59.770Z,29.30
2017-08-22T16:41:27.290Z,29.00
2017-08-22T16:43:54.810Z,28.70
2017-08-22T16:46:22.326Z,28.40
2017-08-22T16:48:49.849Z,28.00
2017-08-22T16:51:17.391Z,27.90
2017-08-22T16:53:44.919Z,27.70
2017-08-22T16:56:12.446Z,27.50
2017-08-22T16:58:40.072Z,27.10
2017-08-22T17:01:07.590Z,26.70
2017-08-22T17:03:35.144Z,26.60
2017-08-22T17:06:02.662Z,26.50
2017-08-22T17:08:30.185Z,26.20
2017-08-22T17:10:57.709Z,26.00
2017-08-22T17:13:25.231Z,25.90
2017-08-22T17:15:52.775Z,25.70
2017-08-22T17:18:20.294Z,25.60
2017-08-22T17:20:47.814Z,25.40
2017-08-22T17:23:15.328Z,25.10
2017-08-22T17:25:42.914Z,25.00
2017-08-22T17:28:10.470Z,24.90
2017-08-22T17:30:37.993Z,24.60
2017-08-22T17:33:05.526Z,24.40
2017-08-22T17:35:33.158Z,24.40
2017-08-22T17:38:00.677Z,24.40
2017-08-22T17:40:28.985Z,24.20
2017-08-22T17:42:56.517Z,24.20
2017-08-22T17:45:24.809Z,23.90
2017-08-22T17:47:52.339Z,23.90
2017-08-22T17:50:19.858Z,23.80
2017-08-22T17:52:47.497Z,23.70
2017-08-22T17:55:15.017Z,23.60
2017-08-22T17:57:42.533Z,23.40
2017-08-22T18:00:10.049Z,23.40
2017-08-22T18:02:37.598Z,23.40
2017-08-22T18:05:05.147Z,23.20
2017-08-22T18:07:32.673Z,23.20
2017-08-22T18:10:00.190Z,23.10
2017-08-22T18:12:27.713Z,23.10
2017-08-22T18:14:55.238Z,23.00
2017-08-22T18:17:22.788Z,22.90
2017-08-22T18:19:50.309Z,22.80
2017-08-22T18:22:17.969Z,22.70
2017-08-22T18:24:45.494Z,22.60
2017-08-22T18:27:13.013Z,22.60
2017-08-22T18:29:40.542Z,22.50
2017-08-22T18:32:08.067Z,22.50
2017-08-22T18:34:35.611Z,22.50
2017-08-22T18:37:03.129Z,22.40
2017-08-22T18:39:30.654Z,22.40
2017-08-22T18:44:32.858Z,22.20
2017-08-22T18:47:00.408Z,22.20
2017-08-22T18:49:27.929Z,22.20
2017-08-22T18:51:55.454Z,22.20
2017-08-22T18:54:22.994Z,22.10
2017-08-22T18:56:50.529Z,21.80
2017-08-22T18:59:18.089Z,22.00
2017-08-22T19:01:45.617Z,21.90
2017-08-22T19:04:13.147Z,21.90
2017-08-22T19:06:40.664Z,21.80
2017-08-22T19:09:08.187Z,21.80
2017-08-22T19:11:35.738Z,21.70
2017-08-22T19:14:03.262Z,21.70
2017-08-22T19:16:30.789Z,21.60
2017-08-22T19:18:58.307Z,21.60
2017-08-22T19:21:25.829Z,21.60
2017-08-22T19:23:53.383Z,21.50
2017-08-22T19:26:20.910Z,21.40
2017-08-22T19:28:48.431Z,21.40
2017-08-22T19:31:15.950Z,21.40
2017-08-22T19:33:43.465Z,21.40
2017-08-22T19:36:11.009Z,21.30
2017-08-22T19:38:38.527Z,21.20
2017-08-22T19:41:06.829Z,21.20
2017-08-22T19:43:34.349Z,21.20
2017-08-22T19:46:01.866Z,21.10
2017-08-22T19:48:29.412Z,21.10
2017-08-22T19:50:56.945Z,21.00
2017-08-22T19:53:24.486Z,21.00
2017-08-22T19:55:52.009Z,21.00
2017-08-22T19:58:19.554Z,20.80
2017-08-22T20:00:47.093Z,20.60
2017-08-22T20:03:14.611Z,20.70
2017-08-22T20:05:42.134Z,20.50
2017-08-22T20:08:09.689Z,20.50
2017-08-22T20:10:37.278Z,20.40
2017-08-22T20:13:04.822Z,20.00
2017-08-22T20:15:32.367Z,20.20
2017-08-22T20:17:59.898Z,19.90
2017-08-22T20:20:27.417Z,19.90
2017-08-22T20:22:55.034Z,20.00
2017-08-22T20:25:22.589Z,20.10
2017-08-22T20:27:50.118Z,19.60
2017-08-22T20:30:17.646Z,19.20
2017-08-22T20:32:45.177Z,19.50
2017-08-22T20:35:12.697Z,19.70
2017-08-22T20:37:40.253Z,19.60
2017-08-22T20:40:07.777Z,19.60
2017-08-22T20:42:35.295Z,19.40
2017-08-22T20:45:02.826Z,19.50
2017-08-22T20:47:30.350Z,19.50
2017-08-22T20:49:57.899Z,19.50
2017-08-22T20:52:25.428Z,19.60
2017-08-22T20:54:52.949Z,19.30
2017-08-22T20:57:20.563Z,19.10
2017-08-22T20:59:48.086Z,19.30
2017-08-22T21:02:15.645Z,19.30
2017-08-22T21:04:43.229Z,19.20
2017-08-22T21:07:10.758Z,19.20
2017-08-22T21:09:38.300Z,19.30
2017-08-22T21:12:05.821Z,19.40
2017-08-22T21:14:33.382Z,19.40
2017-08-22T21:17:00.906Z,19.40
2017-08-22T21:19:28.435Z,19.40
2017-08-22T21:21:55.966Z,19.50
2017-08-22T21:24:24.258Z,19.20
2017-08-22T21:26:51.823Z,19.20
2017-08-22T21:29:19.353Z,19.10
2017-08-22T21:31:46.882Z,19.20
2017-08-22T21:34:14.418Z,19.20
2017-08-22T21:36:41.947Z,19.30
2017-08-22T21:39:09.494Z,18.90
2017-08-22T21:41:37.021Z,18.80
2017-08-22T21:44:04.541Z,18.70
2017-08-22T21:46:32.082Z,18.50
2017-08-22T21:48:59.605Z,18.50
2017-08-22T21:51:27.370Z,18.70
2017-08-22T21:53:54.899Z,18.60
2017-08-22T21:56:22.429Z,18.40
2017-08-22T21:58:50.729Z,18.40
2017-08-22T22:01:18.253Z,18.40
2017-08-22T22:03:45.873Z,18.20
2017-08-22T22:06:13.401Z,18.30
2017-08-22T22:08:40.930Z,18.40
2017-08-22T22:11:08.449Z,18.20
2017-08-22T22:13:35.973Z,18.10
2017-08-22T22:16:03.523Z,18.40
2017-08-22T22:18:31.051Z,18.40
2017-08-22T22:20:58.606Z,18.50
2017-08-22T22:23:26.133Z,18.70
2017-08-22T22:25:53.663Z,18.90
2017-08-22T22:28:21.215Z,19.00
2017-08-22T22:30:49.539Z,18.80
2017-08-22T22:33:17.066Z,18.70
2017-08-22T22:35:44.589Z,18.90
2017-08-22T22:38:12.113Z,19.00
2017-08-22T22:40:39.658Z,18.40
2017-08-22T22:43:07.182Z,18.50
2017-08-22T22:45:34.701Z,18.60
2017-08-22T22:48:02.334Z,18.60
2017-08-22T22:50:29.858Z,18.50
2017-08-22T22:52:58.169Z,18.40
2017-08-22T22:55:25.722Z,18.40
2017-08-22T22:57:53.239Z,18.10
2017-08-22T23:00:20.763Z,17.90
2017-08-22T23:02:48.284Z,18.00
2017-08-22T23:05:16.065Z,18.00
2017-08-22T23:07:43.594Z,18.00
2017-08-22T23:10:11.117Z,18.30
2017-08-22T23:12:38.632Z,18.40
2017-08-22T23:15:06.185Z,18.50
2017-08-22T23:17:33.728Z,18.30
2017-08-22T23:20:01.250Z,18.20
2017-08-22T23:22:28.766Z,18.30
2017-08-22T23:24:56.290Z,18.50
2017-08-22T23:27:23.818Z,18.60
2017-08-22T23:29:51.375Z,18.70
2017-08-22T23:32:18.898Z,18.90
2017-08-22T23:34:46.428Z,19.00
2017-08-22T23:37:14.713Z,19.00
2017-08-22T23:39:42.233Z,19.00
2017-08-22T23:42:09.792Z,19.00
2017-08-22T23:44:37.318Z,19.00
2017-08-22T23:47:04.841Z,19.00
2017-08-22T23:49:32.438Z,19.10
2017-08-22T23:51:59.957Z,19.20
2017-08-22T23:54:27.507Z,19.20
2017-08-22T23:56:55.025Z,19.30
2017-08-22T23:59:22.542Z,19.40
